Point Reyes Station, California
Current Conditions -  °F | °C
As of 10:35 PM on Tuesday 27 Jan 2015 (Local Time) from KO69 Reporting Station
Broken Clouds Broken Clouds  
Wind Chill: 50°   Ceiling: 10000
Heat Index: 50°   Visibility: 10mi
Dew Point: 48°   Wind: 0mph
Humidity: 94%   Direction: NA
Pressure: 30.28"   Gusts: NA
Location:  38.07°N, 122.81°W
Report Text: KO69 280635Z AUTO 00000KT 10SM BKN100 10/09 A3028 RMK AO1
Loading
Personal Weather Stations






























Interactive Weather Map New forecast layout! Learn more

10-Day Weather Forecast

Advertisements
Track Severe Weather on mobile